sensor_id;sensor_type;location;lat;lon;timestamp;pressure;altitude;pressure_sealevel;temperature;humidity
15568;BME280;7885;42.596;23.044;2023-05-23T00:00:40;92843.13;;;12.93;93.54
15568;BME280;7885;42.596;23.044;2023-05-23T00:03:07;92850.22;;;12.87;92.93
15568;BME280;7885;42.596;23.044;2023-05-23T00:05:35;92849.44;;;12.86;93.95
15568;BME280;7885;42.596;23.044;2023-05-23T00:08:02;92850.94;;;12.91;93.43
15568;BME280;7885;42.596;23.044;2023-05-23T00:10:29;92844.00;;;12.83;92.02
15568;BME280;7885;42.596;23.044;2023-05-23T00:12:56;92844.19;;;12.72;93.21
15568;BME280;7885;42.596;23.044;2023-05-23T00:15:24;92836.47;;;12.63;96.39
15568;BME280;7885;42.596;23.044;2023-05-23T00:17:51;92835.03;;;12.52;97.16
15568;BME280;7885;42.596;23.044;2023-05-23T00:20:18;92825.81;;;12.42;99.33
15568;BME280;7885;42.596;23.044;2023-05-23T00:22:45;92830.88;;;12.44;99.46
15568;BME280;7885;42.596;23.044;2023-05-23T00:25:12;92820.34;;;12.42;97.20
15568;BME280;7885;42.596;23.044;2023-05-23T00:27:39;92823.53;;;12.37;97.71
15568;BME280;7885;42.596;23.044;2023-05-23T00:30:07;92820.38;;;12.39;97.37
15568;BME280;7885;42.596;23.044;2023-05-23T00:32:35;92820.38;;;12.39;97.37
15568;BME280;7885;42.596;23.044;2023-05-23T00:35:02;92826.22;;;12.41;97.93
15568;BME280;7885;42.596;23.044;2023-05-23T00:37:29;92818.94;;;12.31;96.41
15568;BME280;7885;42.596;23.044;2023-05-23T00:39:56;92825.88;;;12.35;94.56
15568;BME280;7885;42.596;23.044;2023-05-23T00:42:23;92820.34;;;12.42;98.18
15568;BME280;7885;42.596;23.044;2023-05-23T00:44:49;92831.25;;;12.42;95.94
15568;BME280;7885;42.596;23.044;2023-05-23T00:47:16;92815.44;;;12.30;98.88
15568;BME280;7885;42.596;23.044;2023-05-23T00:49:45;92822.06;;;12.29;99.37
15568;BME280;7885;42.596;23.044;2023-05-23T00:52:13;92821.41;;;12.18;98.57
15568;BME280;7885;42.596;23.044;2023-05-23T00:54:41;92827.63;;;12.19;96.60
15568;BME280;7885;42.596;23.044;2023-05-23T00:57:08;92830.31;;;12.22;96.32
15568;BME280;7885;42.596;23.044;2023-05-23T00:59:37;92821.47;;;12.11;94.68
15568;BME280;7885;42.596;23.044;2023-05-23T01:02:04;92831.63;;;12.07;94.62
15568;BME280;7885;42.596;23.044;2023-05-23T01:04:31;92829.00;;;11.96;95.63
15568;BME280;7885;42.596;23.044;2023-05-23T01:07:00;92819.75;;;11.87;96.55
15568;BME280;7885;42.596;23.044;2023-05-23T01:09:27;92816.22;;;11.90;97.73
15568;BME280;7885;42.596;23.044;2023-05-23T01:12:05;92816.22;;;11.90;100.00
15568;BME280;7885;42.596;23.044;2023-05-23T01:14:41;92817.88;;;11.80;99.53
15568;BME280;7885;42.596;23.044;2023-05-23T01:17:13;92823.00;;;11.75;100.00
15568;BME280;7885;42.596;23.044;2023-05-23T01:19:53;92825.38;;;11.65;99.29
15568;BME280;7885;42.596;23.044;2023-05-23T01:22:34;92813.38;;;11.59;97.49
15568;BME280;7885;42.596;23.044;2023-05-23T01:25:10;92823.03;;;11.71;97.66
15568;BME280;7885;42.596;23.044;2023-05-23T01:27:54;92824.19;;;11.74;98.09
15568;BME280;7885;42.596;23.044;2023-05-23T01:30:22;92834.63;;;11.82;98.87
15568;BME280;7885;42.596;23.044;2023-05-23T01:32:52;92814.13;;;11.63;96.84
15568;BME280;7885;42.596;23.044;2023-05-23T01:35:24;92834.28;;;11.77;100.00
15568;BME280;7885;42.596;23.044;2023-05-23T01:37:51;92824.16;;;11.77;100.00
15568;BME280;7885;42.596;23.044;2023-05-23T01:40:18;92827.19;;;11.83;100.00
15568;BME280;7885;42.596;23.044;2023-05-23T01:42:45;92819.34;;;11.92;100.00
15568;BME280;7885;42.596;23.044;2023-05-23T01:45:15;92813.44;;;11.97;100.00
15568;BME280;7885;42.596;23.044;2023-05-23T01:47:42;92808.28;;;12.06;100.00
15568;BME280;7885;42.596;23.044;2023-05-23T01:50:10;92812.94;;;12.09;100.00
15568;BME280;7885;42.596;23.044;2023-05-23T01:52:37;92815.28;;;12.07;100.00
15568;BME280;7885;42.596;23.044;2023-05-23T01:55:06;92806.38;;;12.03;99.35
15568;BME280;7885;42.596;23.044;2023-05-23T01:57:35;92806.81;;;11.98;96.48
15568;BME280;7885;42.596;23.044;2023-05-23T02:00:02;92802.19;;;11.91;96.30
15568;BME280;7885;42.596;23.044;2023-05-23T02:02:31;92793.03;;;11.75;97.35
15568;BME280;7885;42.596;23.044;2023-05-23T02:04:58;92795.38;;;11.69;98.86
15568;BME280;7885;42.596;23.044;2023-05-23T02:07:25;92796.94;;;11.66;100.00
15568;BME280;7885;42.596;23.044;2023-05-23T02:09:53;92773.78;;;11.48;100.00
15568;BME280;7885;42.596;23.044;2023-05-23T02:12:20;92807.88;;;11.63;100.00
15568;BME280;7885;42.596;23.044;2023-05-23T02:14:48;92804.09;;;11.53;99.77
15568;BME280;7885;42.596;23.044;2023-05-23T02:17:16;92807.59;;;11.54;97.99
15568;BME280;7885;42.596;23.044;2023-05-23T02:19:44;92801.75;;;11.52;97.68
15568;BME280;7885;42.596;23.044;2023-05-23T02:22:11;92810.34;;;11.50;97.70
15568;BME280;7885;42.596;23.044;2023-05-23T02:24:38;92811.22;;;11.40;97.73
15568;BME280;7885;42.596;23.044;2023-05-23T02:27:04;92800.84;;;11.21;100.00
15568;BME280;7885;42.596;23.044;2023-05-23T02:29:31;92794.38;;;11.01;100.00
15568;BME280;7885;42.596;23.044;2023-05-23T02:31:58;92803.66;;;11.07;100.00
15568;BME280;7885;42.596;23.044;2023-05-23T02:34:24;92808.72;;;11.08;100.00
15568;BME280;7885;42.596;23.044;2023-05-23T02:36:53;92808.34;;;11.10;100.00
15568;BME280;7885;42.596;23.044;2023-05-23T02:39:19;92814.56;;;11.07;96.42
15568;BME280;7885;42.596;23.044;2023-05-23T02:41:46;92790.53;;;10.95;96.32
15568;BME280;7885;42.596;23.044;2023-05-23T02:44:13;92796.72;;;10.99;99.36
15568;BME280;7885;42.596;23.044;2023-05-23T02:46:40;92791.25;;;11.02;100.00
15568;BME280;7885;42.596;23.044;2023-05-23T02:52:30;92793.53;;;11.07;100.00
15568;BME280;7885;42.596;23.044;2023-05-23T02:54:57;92786.53;;;11.10;100.00
15568;BME280;7885;42.596;23.044;2023-05-23T02:57:24;92793.13;;;11.12;100.00
15568;BME280;7885;42.596;23.044;2023-05-23T02:59:50;92784.22;;;11.08;99.54
15568;BME280;7885;42.596;23.044;2023-05-23T03:02:17;92786.91;;;11.12;98.58
15568;BME280;7885;42.596;23.044;2023-05-23T03:04:44;92784.22;;;11.08;96.49
15568;BME280;7885;42.596;23.044;2023-05-23T03:07:10;92797.44;;;11.10;97.55
15568;BME280;7885;42.596;23.044;2023-05-23T03:09:40;92806.75;;;11.12;98.07
15568;BME280;7885;42.596;23.044;2023-05-23T03:12:07;92805.97;;;11.12;98.50
15568;BME280;7885;42.596;23.044;2023-05-23T03:14:34;92807.53;;;11.13;97.35
15568;BME280;7885;42.596;23.044;2023-05-23T03:17:00;92809.88;;;11.07;96.26
15568;BME280;7885;42.596;23.044;2023-05-23T03:19:28;92812.22;;;11.09;97.20
15568;BME280;7885;42.596;23.044;2023-05-23T03:21:55;92809.84;;;11.14;97.84
15568;BME280;7885;42.596;23.044;2023-05-23T03:24:22;92799.00;;;11.04;98.09
15568;BME280;7885;42.596;23.044;2023-05-23T03:26:50;92812.22;;;11.09;99.08
15568;BME280;7885;42.596;23.044;2023-05-23T03:29:16;92807.91;;;11.11;99.64
15568;BME280;7885;42.596;23.044;2023-05-23T03:31:43;92806.72;;;11.16;100.00
15568;BME280;7885;42.596;23.044;2023-05-23T03:34:10;92804.75;;;11.20;100.00
15568;BME280;7885;42.596;23.044;2023-05-23T03:36:37;92794.25;;;11.19;100.00
15568;BME280;7885;42.596;23.044;2023-05-23T03:39:04;92813.56;;;11.35;99.76
15568;BME280;7885;42.596;23.044;2023-05-23T03:41:31;92812.03;;;11.37;97.84
15568;BME280;7885;42.596;23.044;2023-05-23T03:43:59;92822.84;;;11.44;97.07
15568;BME280;7885;42.596;23.044;2023-05-23T03:46:26;92828.31;;;11.44;97.80
15568;BME280;7885;42.596;23.044;2023-05-23T03:48:53;92830.59;;;11.49;98.37
15568;BME280;7885;42.596;23.044;2023-05-23T03:51:19;92827.44;;;11.54;98.96
15568;BME280;7885;42.596;23.044;2023-05-23T03:53:46;92831.69;;;11.55;99.58
15568;BME280;7885;42.596;23.044;2023-05-23T03:56:13;92835.19;;;11.59;99.92
15568;BME280;7885;42.596;23.044;2023-05-23T03:58:39;92828.59;;;11.57;100.00
15568;BME280;7885;42.596;23.044;2023-05-23T04:01:07;92828.97;;;11.55;100.00
15568;BME280;7885;42.596;23.044;2023-05-23T04:03:34;92825.84;;;11.60;100.00
15568;BME280;7885;42.596;23.044;2023-05-23T04:06:01;92823.44;;;11.66;100.00
15568;BME280;7885;42.596;23.044;2023-05-23T04:08:28;92823.41;;;11.70;100.00
15568;BME280;7885;42.596;23.044;2023-05-23T04:10:58;92807.84;;;11.66;100.00
15568;BME280;7885;42.596;23.044;2023-05-23T04:13:25;92825.59;;;11.89;100.00
15568;BME280;7885;42.596;23.044;2023-05-23T04:15:52;92822.44;;;11.94;100.00
15568;BME280;7885;42.596;23.044;2023-05-23T04:18:21;92828.19;;;12.03;100.00
15568;BME280;7885;42.596;23.044;2023-05-23T04:20:48;92831.56;;;12.14;100.00
15568;BME280;7885;42.596;23.044;2023-05-23T04:23:15;92825.22;;;12.24;100.00
15568;BME280;7885;42.596;23.044;2023-05-23T04:25:42;92823.94;;;12.36;100.00
15568;BME280;7885;42.596;23.044;2023-05-23T04:28:09;92821.06;;;12.46;100.00
15568;BME280;7885;42.596;23.044;2023-05-23T04:30:36;92821.34;;;12.55;100.00
15568;BME280;7885;42.596;23.044;2023-05-23T04:33:03;92821.72;;;12.57;100.00
15568;BME280;7885;42.596;23.044;2023-05-23T04:35:32;92827.16;;;12.61;100.00
15568;BME280;7885;42.596;23.044;2023-05-23T04:38:03;92829.38;;;12.70;100.00
15568;BME280;7885;42.596;23.044;2023-05-23T04:40:29;92830.44;;;12.76;100.00
15568;BME280;7885;42.596;23.044;2023-05-23T04:42:56;92829.09;;;12.91;100.00
15568;BME280;7885;42.596;23.044;2023-05-23T04:45:23;92835.16;;;13.05;100.00
15568;BME280;7885;42.596;23.044;2023-05-23T04:47:50;92841.28;;;13.17;100.00
15568;BME280;7885;42.596;23.044;2023-05-23T04:50:19;92820.88;;;13.21;99.63
15568;BME280;7885;42.596;23.044;2023-05-23T04:52:48;92835.41;;;13.41;98.86
15568;BME280;7885;42.596;23.044;2023-05-23T04:55:15;92838.41;;;13.50;98.59
15568;BME280;7885;42.596;23.044;2023-05-23T04:57:42;92830.03;;;13.61;98.35
15568;BME280;7885;42.596;23.044;2023-05-23T05:00:09;92832.56;;;13.75;97.58
15568;BME280;7885;42.596;23.044;2023-05-23T05:02:37;92830.81;;;13.85;97.05
15568;BME280;7885;42.596;23.044;2023-05-23T05:05:05;92833.56;;;13.85;95.95
15568;BME280;7885;42.596;23.044;2023-05-23T05:07:32;92829.16;;;13.91;96.57
15568;BME280;7885;42.596;23.044;2023-05-23T05:10:01;92824.41;;;13.95;95.36
15568;BME280;7885;42.596;23.044;2023-05-23T05:12:28;92829.63;;;14.09;94.58
15568;BME280;7885;42.596;23.044;2023-05-23T05:14:54;92835.25;;;14.22;93.99
15568;BME280;7885;42.596;23.044;2023-05-23T05:17:21;92833.28;;;14.22;93.00
15568;BME280;7885;42.596;23.044;2023-05-23T05:19:49;92825.28;;;14.31;93.22
15568;BME280;7885;42.596;23.044;2023-05-23T05:22:15;92843.75;;;14.50;94.95
15568;BME280;7885;42.596;23.044;2023-05-23T05:24:42;92829.13;;;14.57;94.19
15568;BME280;7885;42.596;23.044;2023-05-23T05:27:10;92843.41;;;14.68;93.86
15568;BME280;7885;42.596;23.044;2023-05-23T05:29:37;92826.13;;;14.71;93.87
15568;BME280;7885;42.596;23.044;2023-05-23T05:32:04;92836.88;;;14.82;93.73
15568;BME280;7885;42.596;23.044;2023-05-23T05:34:33;92841.69;;;14.94;93.52
15568;BME280;7885;42.596;23.044;2023-05-23T05:37:02;92842.72;;;15.00;92.48
15568;BME280;7885;42.596;23.044;2023-05-23T05:39:28;92843.34;;;15.07;92.23
15568;BME280;7885;42.596;23.044;2023-05-23T05:41:55;92840.06;;;15.16;91.00
15568;BME280;7885;42.596;23.044;2023-05-23T05:44:23;92851.72;;;15.20;90.72
15568;BME280;7885;42.596;23.044;2023-05-23T05:46:51;92850.00;;;15.26;89.81
15568;BME280;7885;42.596;23.044;2023-05-23T05:49:18;92845.91;;;15.34;91.07
15568;BME280;7885;42.596;23.044;2023-05-23T05:51:44;92859.72;;;15.47;90.51
15568;BME280;7885;42.596;23.044;2023-05-23T05:54:11;92849.75;;;15.56;88.48
15568;BME280;7885;42.596;23.044;2023-05-23T05:56:38;92833.13;;;15.63;89.72
15568;BME280;7885;42.596;23.044;2023-05-23T05:59:04;92843.84;;;15.74;89.56
15568;BME280;7885;42.596;23.044;2023-05-23T06:01:32;92847.03;;;15.89;89.19
15568;BME280;7885;42.596;23.044;2023-05-23T06:04:00;92853.59;;;16.07;89.38
15568;BME280;7885;42.596;23.044;2023-05-23T06:06:26;92856.25;;;16.27;89.31
15568;BME280;7885;42.596;23.044;2023-05-23T06:08:53;92854.34;;;16.40;88.26
15568;BME280;7885;42.596;23.044;2023-05-23T06:11:20;92847.78;;;16.50;86.81
15568;BME280;7885;42.596;23.044;2023-05-23T06:13:47;92837.50;;;16.54;87.31
15568;BME280;7885;42.596;23.044;2023-05-23T06:16:13;92846.66;;;16.64;86.87
15568;BME280;7885;42.596;23.044;2023-05-23T06:18:41;92857.84;;;16.86;87.41
15568;BME280;7885;42.596;23.044;2023-05-23T06:21:08;92842.56;;;16.85;86.26
15568;BME280;7885;42.596;23.044;2023-05-23T06:23:35;92850.22;;;17.06;87.34
15568;BME280;7885;42.596;23.044;2023-05-23T06:26:02;92851.09;;;17.15;86.25
15568;BME280;7885;42.596;23.044;2023-05-23T06:28:32;92857.41;;;17.29;84.55
15568;BME280;7885;42.596;23.044;2023-05-23T06:30:59;92848.81;;;17.39;84.58
15568;BME280;7885;42.596;23.044;2023-05-23T06:33:26;92856.78;;;17.62;83.67
15568;BME280;7885;42.596;23.044;2023-05-23T06:35:54;92863.94;;;17.73;81.46
15568;BME280;7885;42.596;23.044;2023-05-23T06:38:21;92857.44;;;17.79;82.62
15568;BME280;7885;42.596;23.044;2023-05-23T06:40:48;92849.41;;;17.72;82.75
15568;BME280;7885;42.596;23.044;2023-05-23T06:43:15;92853.94;;;17.79;84.15
15568;BME280;7885;42.596;23.044;2023-05-23T06:45:43;92855.16;;;17.78;82.55
15568;BME280;7885;42.596;23.044;2023-05-23T06:48:10;92852.50;;;17.87;83.10
15568;BME280;7885;42.596;23.044;2023-05-23T06:50:37;92843.03;;;17.88;83.94
15568;BME280;7885;42.596;23.044;2023-05-23T06:53:05;92850.59;;;18.09;83.75
15568;BME280;7885;42.596;23.044;2023-05-23T06:55:32;92847.91;;;18.31;81.34
15568;BME280;7885;42.596;23.044;2023-05-23T06:57:59;92851.09;;;18.29;82.24
15568;BME280;7885;42.596;23.044;2023-05-23T07:00:28;92842.28;;;18.34;81.82
15568;BME280;7885;42.596;23.044;2023-05-23T07:02:55;92840.28;;;18.47;81.49
15568;BME280;7885;42.596;23.044;2023-05-23T07:05:25;92831.53;;;18.49;80.71
15568;BME280;7885;42.596;23.044;2023-05-23T07:07:52;92844.03;;;18.53;80.26
15568;BME280;7885;42.596;23.044;2023-05-23T07:10:20;92839.81;;;18.61;80.61
15568;BME280;7885;42.596;23.044;2023-05-23T07:12:47;92827.63;;;18.72;79.18
15568;BME280;7885;42.596;23.044;2023-05-23T07:15:14;92835.53;;;18.82;78.10
15568;BME280;7885;42.596;23.044;2023-05-23T07:17:41;92834.03;;;18.90;77.98
15568;BME280;7885;42.596;23.044;2023-05-23T07:20:08;92821.81;;;19.13;77.59
15568;BME280;7885;42.596;23.044;2023-05-23T07:22:35;92822.75;;;19.19;77.11
15568;BME280;7885;42.596;23.044;2023-05-23T07:25:02;92813.25;;;19.20;77.64
15568;BME280;7885;42.596;23.044;2023-05-23T07:27:30;92822.31;;;19.51;76.04
15568;BME280;7885;42.596;23.044;2023-05-23T07:29:57;92818.22;;;19.56;75.06
15568;BME280;7885;42.596;23.044;2023-05-23T07:32:24;92818.03;;;19.50;74.44
15568;BME280;7885;42.596;23.044;2023-05-23T07:34:51;92794.28;;;19.53;75.80
15568;BME280;7885;42.596;23.044;2023-05-23T07:37:17;92822.84;;;19.99;70.42
15568;BME280;7885;42.596;23.044;2023-05-23T07:39:44;92819.50;;;20.22;66.21
15568;BME280;7885;42.596;23.044;2023-05-23T07:42:11;92826.31;;;20.48;62.99
15568;BME280;7885;42.596;23.044;2023-05-23T07:44:40;92817.44;;;20.72;64.11
15568;BME280;7885;42.596;23.044;2023-05-23T07:47:07;92806.66;;;20.83;61.31
15568;BME280;7885;42.596;23.044;2023-05-23T07:49:33;92822.66;;;21.15;65.20
15568;BME280;7885;42.596;23.044;2023-05-23T07:52:00;92826.03;;;21.19;62.67
15568;BME280;7885;42.596;23.044;2023-05-23T07:54:27;92826.94;;;21.25;61.92
15568;BME280;7885;42.596;23.044;2023-05-23T07:56:54;92821.53;;;21.31;61.98
15568;BME280;7885;42.596;23.044;2023-05-23T07:59:20;92827.25;;;21.36;61.77
15568;BME280;7885;42.596;23.044;2023-05-23T08:01:49;92827.84;;;21.40;61.79
15568;BME280;7885;42.596;23.044;2023-05-23T08:04:16;92829.03;;;21.48;60.12
15568;BME280;7885;42.596;23.044;2023-05-23T08:06:43;92811.19;;;21.49;59.74
15568;BME280;7885;42.596;23.044;2023-05-23T08:09:11;92812.72;;;21.59;59.47
15568;BME280;7885;42.596;23.044;2023-05-23T08:11:38;92826.19;;;21.76;58.56
15568;BME280;7885;42.596;23.044;2023-05-23T08:14:04;92823.94;;;22.07;57.56
15568;BME280;7885;42.596;23.044;2023-05-23T08:16:32;92822.06;;;22.13;57.31
15568;BME280;7885;42.596;23.044;2023-05-23T08:19:00;92818.78;;;22.47;57.93
15568;BME280;7885;42.596;23.044;2023-05-23T08:21:27;92811.16;;;22.57;51.46
15568;BME280;7885;42.596;23.044;2023-05-23T08:23:54;92812.81;;;22.16;49.42
15568;BME280;7885;42.596;23.044;2023-05-23T08:26:20;92818.22;;;22.10;52.22
15568;BME280;7885;42.596;23.044;2023-05-23T08:28:47;92811.81;;;22.28;52.32
15568;BME280;7885;42.596;23.044;2023-05-23T08:31:14;92803.97;;;22.50;52.80
15568;BME280;7885;42.596;23.044;2023-05-23T08:33:41;92803.78;;;22.78;52.23
15568;BME280;7885;42.596;23.044;2023-05-23T08:36:10;92812.47;;;23.09;51.68
15568;BME280;7885;42.596;23.044;2023-05-23T08:38:37;92808.63;;;22.92;50.20
15568;BME280;7885;42.596;23.044;2023-05-23T08:41:04;92798.06;;;22.81;49.63
15568;BME280;7885;42.596;23.044;2023-05-23T08:43:38;92791.97;;;22.92;52.53
15568;BME280;7885;42.596;23.044;2023-05-23T08:46:05;92804.72;;;23.13;50.46
15568;BME280;7885;42.596;23.044;2023-05-23T08:48:33;92796.41;;;23.13;48.16
15568;BME280;7885;42.596;23.044;2023-05-23T08:51:03;92794.00;;;23.21;48.99
15568;BME280;7885;42.596;23.044;2023-05-23T08:53:32;92794.00;;;23.06;47.94
15568;BME280;7885;42.596;23.044;2023-05-23T08:56:02;92794.47;;;23.04;47.21
15568;BME280;7885;42.596;23.044;2023-05-23T08:58:29;92796.94;;;22.88;47.49
15568;BME280;7885;42.596;23.044;2023-05-23T09:00:56;92794.75;;;22.92;50.01
15568;BME280;7885;42.596;23.044;2023-05-23T09:03:25;92786.47;;;22.83;49.91
15568;BME280;7885;42.596;23.044;2023-05-23T09:05:52;92800.19;;;23.01;50.97
15568;BME280;7885;42.596;23.044;2023-05-23T09:08:20;92783.63;;;22.92;50.43
15568;BME280;7885;42.596;23.044;2023-05-23T09:10:50;92789.69;;;23.05;50.00
15568;BME280;7885;42.596;23.044;2023-05-23T09:13:17;92791.22;;;23.06;49.92
15568;BME280;7885;42.596;23.044;2023-05-23T09:16:01;92789.00;;;23.10;49.46
15568;BME280;7885;42.596;23.044;2023-05-23T09:18:32;92790.47;;;23.20;50.29
15568;BME280;7885;42.596;23.044;2023-05-23T09:21:00;92796.03;;;23.20;51.09
15568;BME280;7885;42.596;23.044;2023-05-23T09:23:29;92787.03;;;23.25;46.93
15568;BME280;7885;42.596;23.044;2023-05-23T09:26:01;92795.81;;;23.38;48.82
15568;BME280;7885;42.596;23.044;2023-05-23T09:28:28;92789.69;;;23.34;47.54
15568;BME280;7885;42.596;23.044;2023-05-23T09:30:58;92787.81;;;23.40;47.32
15568;BME280;7885;42.596;23.044;2023-05-23T09:33:29;92796.31;;;23.37;48.40
15568;BME280;7885;42.596;23.044;2023-05-23T09:35:58;92781.47;;;23.25;47.88
15568;BME280;7885;42.596;23.044;2023-05-23T09:38:27;92780.03;;;23.15;48.34
15568;BME280;7885;42.596;23.044;2023-05-23T09:40:53;92786.06;;;23.28;48.60
15568;BME280;7885;42.596;23.044;2023-05-23T09:43:23;92786.06;;;23.28;46.19
15568;BME280;7885;42.596;23.044;2023-05-23T09:45:52;92780.03;;;23.15;47.37
15568;BME280;7885;42.596;23.044;2023-05-23T09:48:19;92772.38;;;23.39;48.13
15568;BME280;7885;42.596;23.044;2023-05-23T09:50:45;92775.00;;;23.57;46.87
15568;BME280;7885;42.596;23.044;2023-05-23T09:53:15;92758.31;;;23.57;47.82
15568;BME280;7885;42.596;23.044;2023-05-23T09:55:42;92781.44;;;23.84;46.33
15568;BME280;7885;42.596;23.044;2023-05-23T09:58:09;92776.06;;;23.95;45.30
15568;BME280;7885;42.596;23.044;2023-05-23T10:00:38;92775.31;;;23.94;47.67
15568;BME280;7885;42.596;23.044;2023-05-23T10:03:09;92756.31;;;23.93;46.52
15568;BME280;7885;42.596;23.044;2023-05-23T10:05:40;92763.31;;;24.03;47.24
15568;BME280;7885;42.596;23.044;2023-05-23T10:08:13;92763.22;;;23.97;46.10
15568;BME280;7885;42.596;23.044;2023-05-23T10:13:50;92759.38;;;23.95;44.13
15568;BME280;7885;42.596;23.044;2023-05-23T10:16:22;92769.34;;;24.16;45.85
15568;BME280;7885;42.596;23.044;2023-05-23T10:18:55;92763.78;;;24.16;46.63
15568;BME280;7885;42.596;23.044;2023-05-23T10:21:24;92752.56;;;24.31;48.29
15568;BME280;7885;42.596;23.044;2023-05-23T10:23:57;92761.28;;;24.58;46.02
15568;BME280;7885;42.596;23.044;2023-05-23T10:26:25;92760.59;;;24.43;43.54
15568;BME280;7885;42.596;23.044;2023-05-23T10:28:53;92755.59;;;24.47;42.62
15568;BME280;7885;42.596;23.044;2023-05-23T10:31:22;92755.28;;;24.25;42.70
15568;BME280;7885;42.596;23.044;2023-05-23T10:33:53;92751.97;;;24.41;45.08
15568;BME280;7885;42.596;23.044;2023-05-23T10:36:29;92752.66;;;24.56;44.71
15568;BME280;7885;42.596;23.044;2023-05-23T10:39:04;92756.75;;;24.81;44.56
15568;BME280;7885;42.596;23.044;2023-05-23T10:41:38;92752.25;;;24.84;42.36
15568;BME280;7885;42.596;23.044;2023-05-23T10:44:11;92750.91;;;24.59;41.48
15568;BME280;7885;42.596;23.044;2023-05-23T10:46:53;92747.59;;;24.75;43.66
15568;BME280;7885;42.596;23.044;2023-05-23T10:49:36;92746.00;;;24.89;41.60
15568;BME280;7885;42.596;23.044;2023-05-23T10:52:03;92754.59;;;24.91;41.35
15568;BME280;7885;42.596;23.044;2023-05-23T10:54:34;92750.72;;;24.83;40.58
15568;BME280;7885;42.596;23.044;2023-05-23T10:57:01;92745.56;;;24.96;39.84
15568;BME280;7885;42.596;23.044;2023-05-23T10:59:28;92755.97;;;25.01;43.37
15568;BME280;7885;42.596;23.044;2023-05-23T11:01:56;92744.78;;;25.21;40.08
15568;BME280;7885;42.596;23.044;2023-05-23T11:04:25;92750.25;;;25.10;38.06
15568;BME280;7885;42.596;23.044;2023-05-23T11:06:53;92745.88;;;25.29;40.27
15568;BME280;7885;42.596;23.044;2023-05-23T11:09:20;92742.28;;;25.23;40.87
15568;BME280;7885;42.596;23.044;2023-05-23T11:12:00;92743.53;;;25.22;40.60
15568;BME280;7885;42.596;23.044;2023-05-23T11:14:32;92752.63;;;25.48;41.03
15568;BME280;7885;42.596;23.044;2023-05-23T11:17:13;92741.56;;;25.28;39.69
15568;BME280;7885;42.596;23.044;2023-05-23T11:19:54;92728.72;;;24.85;37.37
15568;BME280;7885;42.596;23.044;2023-05-23T11:22:26;92737.94;;;24.96;42.57
15568;BME280;7885;42.596;23.044;2023-05-23T11:24:54;92731.25;;;25.08;41.11
15568;BME280;7885;42.596;23.044;2023-05-23T11:27:28;92739.66;;;25.14;40.11
15568;BME280;7885;42.596;23.044;2023-05-23T11:30:01;92723.59;;;25.03;38.68
15568;BME280;7885;42.596;23.044;2023-05-23T11:32:30;92729.81;;;24.93;39.96
15568;BME280;7885;42.596;23.044;2023-05-23T11:35:00;92732.47;;;25.02;41.30
15568;BME280;7885;42.596;23.044;2023-05-23T11:37:28;92737.38;;;25.12;40.03
15568;BME280;7885;42.596;23.044;2023-05-23T11:39:55;92726.03;;;25.16;42.15
15568;BME280;7885;42.596;23.044;2023-05-23T11:42:22;92728.41;;;25.29;39.82
15568;BME280;7885;42.596;23.044;2023-05-23T11:44:49;92731.91;;;25.24;41.46
15568;BME280;7885;42.596;23.044;2023-05-23T11:47:16;92722.50;;;25.21;40.01
15568;BME280;7885;42.596;23.044;2023-05-23T11:49:45;92723.25;;;25.47;40.61
15568;BME280;7885;42.596;23.044;2023-05-23T11:52:12;92726.88;;;25.53;39.12
15568;BME280;7885;42.596;23.044;2023-05-23T11:54:40;92712.69;;;25.00;37.60
15568;BME280;7885;42.596;23.044;2023-05-23T11:57:07;92704.44;;;25.11;40.78
15568;BME280;7885;42.596;23.044;2023-05-23T11:59:36;92708.75;;;24.86;37.33
15568;BME280;7885;42.596;23.044;2023-05-23T12:02:06;92709.53;;;25.12;38.88
15568;BME280;7885;42.596;23.044;2023-05-23T12:04:33;92707.34;;;25.22;38.11
15568;BME280;7885;42.596;23.044;2023-05-23T12:07:03;92701.66;;;25.11;39.08
15568;BME280;7885;42.596;23.044;2023-05-23T12:09:30;92700.81;;;24.99;38.99
15568;BME280;7885;42.596;23.044;2023-05-23T12:11:57;92703.19;;;25.12;38.45
15568;BME280;7885;42.596;23.044;2023-05-23T12:14:27;92698.88;;;25.11;39.51
15568;BME280;7885;42.596;23.044;2023-05-23T12:16:54;92703.97;;;25.12;40.47
15568;BME280;7885;42.596;23.044;2023-05-23T12:19:22;92700.56;;;25.29;40.30
15568;BME280;7885;42.596;23.044;2023-05-23T12:21:48;92704.44;;;25.37;38.72
15568;BME280;7885;42.596;23.044;2023-05-23T12:24:18;92693.44;;;25.53;39.26
15568;BME280;7885;42.596;23.044;2023-05-23T12:26:49;92694.03;;;25.69;38.78
15568;BME280;7885;42.596;23.044;2023-05-23T12:29:18;92694.75;;;25.58;36.83
15568;BME280;7885;42.596;23.044;2023-05-23T12:31:48;92687.22;;;25.70;37.59
15568;BME280;7885;42.596;23.044;2023-05-23T12:34:15;92668.34;;;25.53;36.82
15568;BME280;7885;42.596;23.044;2023-05-23T12:36:42;92684.25;;;25.79;38.97
15568;BME280;7885;42.596;23.044;2023-05-23T12:39:10;92680.03;;;26.00;39.14
15568;BME280;7885;42.596;23.044;2023-05-23T12:41:40;92659.09;;;25.68;37.30
15568;BME280;7885;42.596;23.044;2023-05-23T12:44:07;92670.50;;;25.70;38.26
15568;BME280;7885;42.596;23.044;2023-05-23T12:46:34;92669.94;;;25.60;36.71
15568;BME280;7885;42.596;23.044;2023-05-23T12:49:01;92659.78;;;25.62;37.01
15568;BME280;7885;42.596;23.044;2023-05-23T12:51:28;92669.59;;;25.21;37.76
15568;BME280;7885;42.596;23.044;2023-05-23T12:53:55;92662.66;;;25.11;36.50
15568;BME280;7885;42.596;23.044;2023-05-23T12:56:22;92652.28;;;25.11;38.12
15568;BME280;7885;42.596;23.044;2023-05-23T12:58:50;92651.19;;;25.35;38.52
15568;BME280;7885;42.596;23.044;2023-05-23T13:01:19;92650.91;;;25.58;38.28
15568;BME280;7885;42.596;23.044;2023-05-23T13:03:46;92655.28;;;25.65;37.34
15568;BME280;7885;42.596;23.044;2023-05-23T13:06:12;92657.09;;;25.74;37.42
15568;BME280;7885;42.596;23.044;2023-05-23T13:08:39;92651.13;;;25.92;36.04